Augusta, Arkansas
Current Conditions -  °F | °C
As of 11:56 AM on Saturday 25 Oct 2014 (Local Time) from KSRC Reporting Station
Clear Clear  
Wind Chill: 79°   Ceiling: Unl
Heat Index: 81°   Visibility: 10mi
Dew Point: 63°   Wind: 8mph
Humidity: 58%   Direction: 250°WSW
Pressure: 30.1"   Gusts: NA
Location:  35.28°N, 91.37°W
Report Text: KSRC 251656Z AUTO 25007KT 10SM CLR 26/17 A3010 RMK AO2 SLP196 T02610172 TSNO
Loading
Personal Weather Stations






























Interactive Weather Map New forecast layout! Learn more

10-Day Weather Forecast

Advertisements
Track Severe Weather on mobile